createdAt,value
2023-03-24T00:01:59.648Z,74.93
2023-03-24T00:04:44.337Z,74.94
2023-03-24T00:07:25.314Z,74.99
2023-03-24T00:10:06.067Z,74.96
2023-03-24T00:12:45.998Z,75.18
2023-03-24T00:15:28.282Z,75.11
2023-03-24T00:18:11.872Z,75.21
2023-03-24T00:21:00.123Z,75.24
2023-03-24T00:23:43.870Z,75.21
2023-03-24T00:26:26.091Z,75.21
2023-03-24T00:29:06.019Z,75.21
2023-03-24T00:31:45.797Z,75.16
2023-03-24T00:34:25.069Z,75.46
2023-03-24T00:37:09.441Z,75.44
2023-03-24T00:39:51.521Z,75.65
2023-03-24T00:42:30.789Z,75.63
2023-03-24T00:45:11.855Z,75.71
2023-03-24T00:47:55.115Z,75.66
2023-03-24T00:50:34.789Z,75.97
2023-03-24T00:53:19.201Z,75.79
2023-03-24T00:55:59.531Z,75.76
2023-03-24T00:58:38.833Z,75.95
2023-03-24T01:01:20.074Z,76.14
2023-03-24T01:04:01.290Z,76.11
2023-03-24T01:06:42.397Z,76.04
2023-03-24T01:09:27.360Z,75.90
2023-03-24T01:12:07.057Z,75.71
2023-03-24T01:14:46.316Z,75.58
2023-03-24T01:17:27.012Z,75.67
2023-03-24T01:20:09.218Z,75.41
2023-03-24T01:22:51.092Z,75.42
2023-03-24T01:25:37.105Z,74.96
2023-03-24T01:28:16.389Z,74.46
2023-03-24T01:30:55.634Z,74.47
2023-03-24T01:33:35.095Z,74.10
2023-03-24T01:36:15.680Z,74.16
2023-03-24T01:38:54.983Z,74.41
2023-03-24T01:41:42.668Z,75.14
2023-03-24T01:44:36.557Z,75.14
2023-03-24T01:47:16.061Z,75.16
2023-03-24T01:50:00.570Z,75.45
2023-03-24T01:52:44.307Z,75.79
2023-03-24T01:55:28.082Z,75.74
2023-03-24T01:58:13.565Z,75.90
2023-03-24T02:00:53.056Z,76.71
2023-03-24T02:03:39.861Z,76.85
2023-03-24T02:06:21.755Z,76.97
2023-03-24T02:09:03.631Z,76.67
2023-03-24T02:11:44.886Z,76.68
2023-03-24T02:14:29.361Z,77.19
2023-03-24T02:17:35.504Z,76.94
2023-03-24T02:20:41.000Z,77.07
2023-03-24T02:23:55.422Z,77.13
2023-03-24T02:27:07.956Z,77.09
2023-03-24T02:30:18.760Z,76.76
2023-03-24T02:33:26.425Z,77.04
2023-03-24T02:36:41.785Z,76.73
2023-03-24T02:39:56.160Z,76.87
2023-03-24T02:42:51.228Z,76.96
2023-03-24T02:45:42.144Z,76.76
2023-03-24T02:48:33.718Z,76.91
2023-03-24T02:51:20.494Z,76.71
2023-03-24T02:54:10.190Z,76.69
2023-03-24T02:57:03.519Z,76.68
2023-03-24T02:59:50.034Z,76.82
2023-03-24T03:02:34.956Z,76.88
2023-03-24T03:05:21.159Z,77.18
2023-03-24T03:08:07.109Z,77.11
2023-03-24T03:10:50.904Z,77.17
2023-03-24T03:13:42.693Z,77.28
2023-03-24T03:16:28.933Z,77.29
2023-03-24T03:19:15.255Z,77.03
2023-03-24T03:21:57.809Z,77.24
2023-03-24T03:24:42.539Z,77.49
2023-03-24T03:27:28.498Z,77.59
2023-03-24T03:30:21.456Z,77.53
2023-03-24T03:33:04.781Z,77.53
2023-03-24T03:35:50.211Z,77.53
2023-03-24T03:38:38.376Z,77.57
2023-03-24T03:41:19.584Z,77.55
2023-03-24T03:44:00.421Z,77.39
2023-03-24T03:46:45.953Z,77.54
2023-03-24T03:49:26.928Z,77.51
2023-03-24T03:52:06.599Z,77.26
2023-03-24T03:54:47.704Z,77.36
2023-03-24T03:57:28.099Z,77.49
2023-03-24T04:00:16.456Z,77.60
2023-03-24T04:03:23.943Z,77.71
2023-03-24T04:06:10.794Z,77.79
2023-03-24T04:08:57.917Z,78.02
2023-03-24T04:12:07.407Z,77.93
2023-03-24T04:15:12.667Z,77.96
2023-03-24T04:18:20.635Z,77.83
2023-03-24T04:21:34.673Z,77.89
2023-03-24T04:24:31.612Z,77.89
2023-03-24T04:27:23.088Z,77.64
2023-03-24T04:30:16.905Z,77.64
2023-03-24T04:33:04.540Z,77.69
2023-03-24T04:35:50.614Z,77.90
2023-03-24T04:38:39.531Z,77.89
2023-03-24T04:41:21.027Z,78.01
2023-03-24T04:44:03.729Z,78.03
2023-03-24T04:46:43.332Z,78.11
2023-03-24T04:49:26.382Z,78.18
2023-03-24T04:52:05.753Z,78.15
2023-03-24T04:54:50.178Z,78.06
2023-03-24T04:57:29.789Z,78.42
2023-03-24T05:00:09.453Z,78.61
2023-03-24T05:02:48.838Z,78.84
2023-03-24T05:05:28.234Z,78.95
2023-03-24T05:08:07.602Z,79.17
2023-03-24T05:10:53.043Z,79.09
2023-03-24T05:13:32.610Z,78.94
2023-03-24T05:16:13.057Z,78.93
2023-03-24T05:18:52.693Z,78.99
2023-03-24T05:21:33.570Z,78.64
2023-03-24T05:24:13.846Z,78.71
2023-03-24T05:26:58.275Z,78.57
2023-03-24T05:29:37.595Z,78.80
2023-03-24T05:32:17.134Z,78.83
2023-03-24T05:34:56.802Z,79.01
2023-03-24T05:37:36.114Z,78.88
2023-03-24T05:40:17.040Z,78.71
2023-03-24T05:43:01.871Z,79.25
2023-03-24T05:45:42.193Z,78.89
2023-03-24T05:48:21.498Z,78.47
2023-03-24T05:51:01.249Z,78.01
2023-03-24T05:53:40.540Z,78.04
2023-03-24T05:56:19.973Z,77.84
2023-03-24T05:59:04.355Z,78.15
2023-03-24T06:01:43.660Z,77.58
2023-03-24T06:04:23.573Z,77.10
2023-03-24T06:07:04.281Z,77.14
2023-03-24T06:09:47.942Z,77.10
2023-03-24T06:12:28.233Z,76.57
2023-03-24T06:15:18.747Z,76.28
2023-03-24T06:17:58.119Z,75.53
2023-03-24T06:20:37.460Z,75.83
2023-03-24T06:23:17.975Z,75.77
2023-03-24T06:25:57.551Z,76.31
2023-03-24T06:28:38.842Z,76.51
2023-03-24T06:31:23.301Z,76.38
2023-03-24T06:34:02.938Z,76.71
2023-03-24T06:36:42.292Z,76.74
2023-03-24T06:39:22.893Z,76.68
2023-03-24T06:42:02.341Z,76.48
2023-03-24T06:44:42.014Z,75.54
2023-03-24T06:47:26.605Z,75.58
2023-03-24T06:50:06.182Z,75.68
2023-03-24T06:52:45.597Z,75.29
2023-03-24T06:55:24.980Z,75.41
2023-03-24T06:58:04.681Z,74.73
2023-03-24T07:00:44.810Z,73.47
2023-03-24T07:03:29.448Z,74.09
2023-03-24T07:06:08.966Z,74.69
2023-03-24T07:08:48.315Z,73.65
2023-03-24T07:11:27.788Z,73.13
2023-03-24T07:14:07.360Z,73.20
2023-03-24T07:16:46.779Z,72.99
2023-03-24T07:19:31.201Z,72.94
2023-03-24T07:22:11.229Z,72.86
2023-03-24T07:24:51.733Z,72.98
2023-03-24T07:27:33.981Z,73.39
2023-03-24T07:30:15.580Z,73.22
2023-03-24T07:32:55.930Z,72.68
2023-03-24T07:35:40.411Z,72.63
2023-03-24T07:38:19.798Z,72.41
2023-03-24T07:40:59.228Z,72.67
2023-03-24T07:43:38.613Z,72.71
2023-03-24T07:46:18.372Z,73.01
2023-03-24T07:49:03.265Z,72.79
2023-03-24T07:51:53.204Z,72.43
2023-03-24T07:54:33.952Z,72.40
2023-03-24T07:57:13.478Z,72.17
2023-03-24T07:59:52.772Z,72.39
2023-03-24T08:02:32.125Z,72.46
2023-03-24T08:05:12.029Z,72.25
2023-03-24T08:07:59.755Z,72.38
2023-03-24T08:10:39.069Z,72.42
2023-03-24T08:13:19.345Z,72.40
2023-03-24T08:15:59.188Z,72.24
2023-03-24T08:18:38.894Z,71.44
2023-03-24T08:21:18.194Z,71.32
2023-03-24T08:24:02.665Z,70.51
2023-03-24T08:26:43.961Z,70.58
2023-03-24T08:29:23.344Z,70.16
2023-03-24T08:32:02.677Z,70.12
2023-03-24T08:34:42.083Z,69.99
2023-03-24T08:37:21.411Z,69.98
2023-03-24T08:40:13.655Z,69.73
2023-03-24T08:42:56.180Z,69.58
2023-03-24T08:45:38.294Z,69.89
2023-03-24T08:48:18.289Z,69.75
2023-03-24T08:50:57.993Z,69.76
2023-03-24T08:53:37.312Z,69.62
2023-03-24T08:56:23.554Z,69.67
2023-03-24T08:59:03.102Z,69.66
2023-03-24T09:01:43.902Z,70.03
2023-03-24T09:04:23.285Z,70.06
2023-03-24T09:07:03.276Z,70.43
2023-03-24T09:09:42.783Z,70.13
2023-03-24T09:12:27.222Z,70.05
2023-03-24T09:15:06.572Z,70.22
2023-03-24T09:17:46.267Z,70.51
2023-03-24T09:20:25.639Z,70.11
2023-03-24T09:23:06.634Z,70.26
2023-03-24T09:25:46.810Z,69.63
2023-03-24T09:28:32.656Z,69.68
2023-03-24T09:31:13.518Z,69.69
2023-03-24T09:33:53.906Z,70.02
2023-03-24T09:36:33.469Z,69.94
2023-03-24T09:39:12.803Z,70.12
2023-03-24T09:41:52.648Z,70.36
2023-03-24T09:44:43.459Z,70.03
2023-03-24T09:47:34.052Z,70.19
2023-03-24T09:50:25.319Z,69.79
2023-03-24T09:53:14.468Z,70.30
2023-03-24T09:55:54.043Z,70.18
2023-03-24T09:58:42.740Z,70.32
2023-03-24T10:01:28.432Z,70.02
2023-03-24T10:04:08.571Z,70.24
2023-03-24T10:06:50.318Z,70.23
2023-03-24T10:09:32.265Z,70.20
2023-03-24T10:12:25.000Z,69.79
2023-03-24T10:15:24.282Z,69.76
2023-03-24T10:18:35.385Z,69.72
2023-03-24T10:21:26.578Z,69.59
2023-03-24T10:24:14.098Z,69.60
2023-03-24T10:27:01.586Z,70.08
2023-03-24T10:29:43.362Z,69.96
2023-03-24T10:32:27.600Z,70.15
2023-03-24T10:35:16.633Z,70.09
2023-03-24T10:37:58.410Z,70.13
2023-03-24T10:40:39.642Z,69.86
2023-03-24T10:43:20.038Z,69.90
2023-03-24T10:46:01.369Z,70.10
2023-03-24T10:49:00.204Z,70.69
2023-03-24T10:51:45.223Z,70.67
2023-03-24T10:54:27.594Z,70.98
2023-03-24T10:57:12.688Z,71.20
2023-03-24T11:00:02.086Z,71.48
2023-03-24T11:02:41.824Z,72.58
2023-03-24T11:05:25.578Z,73.58
2023-03-24T11:08:26.883Z,72.71
2023-03-24T11:11:06.828Z,71.76
2023-03-24T11:13:46.184Z,71.59
2023-03-24T11:16:25.520Z,72.13
2023-03-24T11:19:07.149Z,71.43
2023-03-24T11:21:46.735Z,71.09
2023-03-24T11:24:32.957Z,70.80
2023-03-24T11:27:13.945Z,70.35
2023-03-24T11:30:00.308Z,69.29
2023-03-24T11:32:39.936Z,68.35
2023-03-24T11:35:35.611Z,69.37
2023-03-24T11:38:24.651Z,69.26
2023-03-24T11:41:10.826Z,65.24
2023-03-24T11:43:50.209Z,62.61
2023-03-24T11:46:29.606Z,64.40
2023-03-24T11:49:09.832Z,65.94
2023-03-24T11:51:54.471Z,66.17
2023-03-24T11:54:40.471Z,65.84
2023-03-24T11:57:48.335Z,66.17
2023-03-24T12:00:34.931Z,67.56
2023-03-24T12:03:48.106Z,67.91
2023-03-24T12:06:41.227Z,67.97
2023-03-24T12:09:33.697Z,68.72
2023-03-24T12:12:35.701Z,69.66
2023-03-24T12:15:33.157Z,69.58
2023-03-24T12:18:32.390Z,69.20
2023-03-24T12:21:23.743Z,69.70
2023-03-24T12:24:07.369Z,69.27
2023-03-24T12:26:47.919Z,69.59
2023-03-24T12:30:06.743Z,69.31
2023-03-24T12:33:05.551Z,69.36
2023-03-24T12:36:00.566Z,69.45
2023-03-24T12:38:57.784Z,68.99
2023-03-24T12:42:05.621Z,69.12
2023-03-24T12:45:10.536Z,69.46
2023-03-24T12:48:12.285Z,69.55
2023-03-24T12:51:04.763Z,69.60
2023-03-24T12:54:00.391Z,69.29
2023-03-24T12:56:47.817Z,68.64
2023-03-24T12:59:35.678Z,69.16
2023-03-24T13:02:27.924Z,69.24
2023-03-24T13:05:18.197Z,69.63
2023-03-24T13:08:03.688Z,69.77
2023-03-24T13:10:45.059Z,70.11
2023-03-24T13:13:30.734Z,69.92
2023-03-24T13:16:17.318Z,70.07
2023-03-24T13:19:01.071Z,68.98
2023-03-24T13:21:45.557Z,67.41
2023-03-24T13:24:27.321Z,67.25
2023-03-24T13:27:16.787Z,65.74
2023-03-24T13:30:22.227Z,65.34
2023-03-24T13:33:09.527Z,64.87
2023-03-24T13:36:07.605Z,62.38
2023-03-24T13:38:58.444Z,51.50
2023-03-24T13:41:44.440Z,49.55
2023-03-24T13:44:29.116Z,43.14
2023-03-24T13:47:15.933Z,43.75
2023-03-24T13:50:06.998Z,43.01
2023-03-24T13:52:52.349Z,52.09
2023-03-24T13:55:45.186Z,56.86
2023-03-24T13:58:29.520Z,54.73
2023-03-24T14:01:13.800Z,53.80
2023-03-24T14:03:54.125Z,53.20
2023-03-24T14:06:53.395Z,54.79
2023-03-24T14:09:34.822Z,56.20
2023-03-24T14:12:32.825Z,56.66
2023-03-24T14:15:28.098Z,53.73
2023-03-24T14:18:23.828Z,53.75
2023-03-24T14:21:08.310Z,52.99
2023-03-24T14:23:50.539Z,52.55
2023-03-24T14:26:40.707Z,49.78
2023-03-24T14:29:55.676Z,48.41
2023-03-24T14:32:35.929Z,47.66
2023-03-24T14:35:31.080Z,46.51
2023-03-24T14:38:13.005Z,44.62
2023-03-24T14:40:54.951Z,42.08
2023-03-24T14:43:35.852Z,41.25
2023-03-24T14:46:46.078Z,39.12
2023-03-24T14:49:31.485Z,41.35
2023-03-24T14:52:20.187Z,46.22
2023-03-24T14:55:03.463Z,47.24
2023-03-24T14:57:50.363Z,47.20
2023-03-24T15:00:36.138Z,47.05
2023-03-24T15:03:31.479Z,48.46
2023-03-24T15:06:18.987Z,47.72
2023-03-24T15:09:00.002Z,48.06
2023-03-24T15:11:42.065Z,45.75
2023-03-24T15:14:29.324Z,44.79
2023-03-24T15:17:13.782Z,44.98
2023-03-24T15:20:01.988Z,45.25
2023-03-24T15:22:49.024Z,46.34
2023-03-24T15:25:34.158Z,47.57
2023-03-24T15:28:26.084Z,48.44
2023-03-24T15:31:06.574Z,49.30
2023-03-24T15:33:48.288Z,49.98
2023-03-24T15:36:47.691Z,51.13
2023-03-24T15:39:32.040Z,51.47
2023-03-24T15:42:14.223Z,50.45
2023-03-24T15:44:53.779Z,50.59
2023-03-24T15:47:37.363Z,50.06
2023-03-24T15:50:37.013Z,49.84
2023-03-24T15:53:46.084Z,50.27
2023-03-24T15:56:32.793Z,50.34
2023-03-24T15:59:21.562Z,47.54
2023-03-24T16:02:01.309Z,44.61
2023-03-24T16:04:40.790Z,43.33
2023-03-24T16:07:32.142Z,42.56
2023-03-24T16:10:41.547Z,41.78
2023-03-24T16:13:24.167Z,40.74
2023-03-24T16:16:06.811Z,40.60
2023-03-24T16:18:48.715Z,41.00
2023-03-24T16:21:30.431Z,41.46
2023-03-24T16:24:09.905Z,44.23
2023-03-24T16:26:54.813Z,45.64
2023-03-24T16:29:34.136Z,48.17
2023-03-24T16:32:14.278Z,51.40
2023-03-24T16:34:53.567Z,54.23
2023-03-24T16:37:34.191Z,56.33
2023-03-24T16:40:28.803Z,57.76
2023-03-24T16:43:13.881Z,59.00
2023-03-24T16:45:54.358Z,59.65
2023-03-24T16:48:33.765Z,59.88
2023-03-24T16:51:14.057Z,60.21
2023-03-24T16:53:54.218Z,60.51
2023-03-24T16:56:33.655Z,60.93
2023-03-24T16:59:18.918Z,60.81
2023-03-24T17:02:00.807Z,61.25
2023-03-24T17:04:42.460Z,61.63
2023-03-24T17:07:21.955Z,61.84
2023-03-24T17:10:01.422Z,61.97
2023-03-24T17:12:40.829Z,62.15
2023-03-24T17:15:29.583Z,61.99
2023-03-24T17:18:09.567Z,62.55
2023-03-24T17:20:49.589Z,62.84
2023-03-24T17:23:29.216Z,63.15
2023-03-24T17:26:08.602Z,63.20
2023-03-24T17:28:48.039Z,63.37
2023-03-24T17:31:32.524Z,63.71
2023-03-24T17:34:21.642Z,63.91
2023-03-24T17:37:02.356Z,64.30
2023-03-24T17:39:41.683Z,64.43
2023-03-24T17:42:21.001Z,64.63
2023-03-24T17:45:00.384Z,65.05
2023-03-24T17:47:45.658Z,65.37
2023-03-24T17:50:26.706Z,65.45
2023-03-24T17:53:07.370Z,65.63
2023-03-24T17:55:46.877Z,65.85
2023-03-24T17:58:26.574Z,65.94
2023-03-24T18:01:08.650Z,66.06
2023-03-24T18:03:53.511Z,66.15
2023-03-24T18:06:33.709Z,66.33
2023-03-24T18:09:13.429Z,66.28
2023-03-24T18:11:53.166Z,66.45
2023-03-24T18:14:32.945Z,66.47
2023-03-24T18:17:12.361Z,66.41
2023-03-24T18:19:57.605Z,66.13
2023-03-24T18:22:37.043Z,66.16
2023-03-24T18:25:17.738Z,66.33
2023-03-24T18:27:57.472Z,66.24
2023-03-24T18:30:37.183Z,66.16
2023-03-24T18:33:17.245Z,66.02
2023-03-24T18:36:02.786Z,65.88
2023-03-24T18:38:42.268Z,66.11
2023-03-24T18:41:22.149Z,66.31
2023-03-24T18:44:02.566Z,66.54
2023-03-24T18:46:43.074Z,66.79
2023-03-24T18:49:22.550Z,67.04
2023-03-24T18:52:08.455Z,67.10
2023-03-24T18:54:50.249Z,67.31
2023-03-24T18:57:29.641Z,67.47
2023-03-24T19:00:14.365Z,67.61
2023-03-24T19:02:54.460Z,67.80
2023-03-24T19:05:33.920Z,68.05
2023-03-24T19:08:18.461Z,68.20
2023-03-24T19:11:01.336Z,68.23
2023-03-24T19:13:42.278Z,68.22
2023-03-24T19:16:21.699Z,68.26
2023-03-24T19:19:01.452Z,68.39
2023-03-24T19:21:41.508Z,68.55
2023-03-24T19:24:26.241Z,68.73
2023-03-24T19:27:05.643Z,68.89
2023-03-24T19:29:45.038Z,68.98
2023-03-24T19:32:24.356Z,69.08
2023-03-24T19:35:05.484Z,69.35
2023-03-24T19:37:44.796Z,69.37
2023-03-24T19:40:29.504Z,69.37
2023-03-24T19:43:08.869Z,69.48
2023-03-24T19:45:48.696Z,69.55
2023-03-24T19:48:29.018Z,69.74
2023-03-24T19:51:09.245Z,69.74
2023-03-24T19:53:48.588Z,69.81
2023-03-24T19:56:33.052Z,69.85
2023-03-24T19:59:12.423Z,69.87
2023-03-24T20:01:51.842Z,69.91
2023-03-24T20:04:31.456Z,69.90
2023-03-24T20:07:10.791Z,69.81
2023-03-24T20:09:50.686Z,69.79
2023-03-24T20:12:35.391Z,69.85
2023-03-24T20:15:15.891Z,69.81
2023-03-24T20:17:55.804Z,69.76
2023-03-24T20:20:35.160Z,69.76
2023-03-24T20:23:15.190Z,69.79
2023-03-24T20:25:54.514Z,69.80
2023-03-24T20:28:39.022Z,69.82
2023-03-24T20:31:19.208Z,69.91
2023-03-24T20:33:58.641Z,69.92
2023-03-24T20:36:39.483Z,69.93
2023-03-24T20:39:18.941Z,70.65
2023-03-24T20:41:58.406Z,70.83
2023-03-24T20:44:42.951Z,70.55
2023-03-24T20:47:22.710Z,71.54
2023-03-24T20:50:02.529Z,71.55
2023-03-24T20:52:42.510Z,71.67
2023-03-24T20:55:22.097Z,71.76
2023-03-24T20:58:02.543Z,71.13
2023-03-24T21:00:47.454Z,71.43
2023-03-24T21:03:26.798Z,70.16
2023-03-24T21:06:06.247Z,70.80
2023-03-24T21:08:45.657Z,71.05
2023-03-24T21:11:25.015Z,71.31
2023-03-24T21:14:04.448Z,71.45
2023-03-24T21:16:48.967Z,71.62
2023-03-24T21:19:29.214Z,72.02
2023-03-24T21:22:10.355Z,72.18
2023-03-24T21:24:49.838Z,72.49
2023-03-24T21:27:29.256Z,72.31
2023-03-24T21:30:09.332Z,71.44
2023-03-24T21:32:54.578Z,71.93
2023-03-24T21:35:34.327Z,72.04
2023-03-24T21:38:14.416Z,72.12
2023-03-24T21:40:53.763Z,70.67
2023-03-24T21:43:33.822Z,65.90
2023-03-24T21:46:21.969Z,66.48
2023-03-24T21:49:06.589Z,66.80
2023-03-24T21:51:45.967Z,67.97
2023-03-24T21:54:27.924Z,68.53
2023-03-24T21:57:07.336Z,68.94
2023-03-24T21:59:46.934Z,69.53
2023-03-24T22:02:28.902Z,69.65
2023-03-24T22:05:14.037Z,69.66
2023-03-24T22:07:53.874Z,70.26
2023-03-24T22:10:35.978Z,70.85
2023-03-24T22:13:16.421Z,71.42
2023-03-24T22:16:00.873Z,69.96
2023-03-24T22:18:42.137Z,69.30
2023-03-24T22:21:26.689Z,70.42
2023-03-24T22:24:05.973Z,70.82
2023-03-24T22:26:45.309Z,70.09
2023-03-24T22:29:24.610Z,69.71
2023-03-24T22:32:04.072Z,69.20
2023-03-24T22:34:43.412Z,69.90
2023-03-24T22:37:28.038Z,70.63
2023-03-24T22:40:08.265Z,69.83
2023-03-24T22:42:47.621Z,68.17
2023-03-24T22:45:26.901Z,67.20
2023-03-24T22:48:06.285Z,68.05
2023-03-24T22:50:47.801Z,68.95
2023-03-24T22:53:32.679Z,68.31
2023-03-24T22:56:12.743Z,67.47
2023-03-24T22:58:52.208Z,67.37
2023-03-24T23:01:31.632Z,66.62
2023-03-24T23:04:11.207Z,66.43
2023-03-24T23:06:50.483Z,66.48
2023-03-24T23:09:34.930Z,66.73
2023-03-24T23:12:14.962Z,67.42
2023-03-24T23:14:55.649Z,67.48
2023-03-24T23:17:35.048Z,66.92
2023-03-24T23:20:16.708Z,67.00
2023-03-24T23:22:56.271Z,66.40
2023-03-24T23:25:41.323Z,66.28
2023-03-24T23:28:21.121Z,67.13
2023-03-24T23:31:00.509Z,67.32
2023-03-24T23:33:40.631Z,67.06
2023-03-24T23:36:20.885Z,67.81
2023-03-24T23:39:00.997Z,68.75
2023-03-24T23:41:45.498Z,69.12
2023-03-24T23:44:25.188Z,69.09
2023-03-24T23:47:04.554Z,69.66
2023-03-24T23:49:44.034Z,70.42
2023-03-24T23:52:23.390Z,70.68
2023-03-24T23:55:03.311Z,71.42
2023-03-24T23:57:50.421Z,72.39
